createdAt,value
2019-03-15T00:00:11.885Z,1.50
2019-03-15T00:02:44.272Z,1.90
2019-03-15T00:05:15.956Z,1.73
2019-03-15T00:07:47.310Z,2.13
2019-03-15T00:10:18.318Z,1.57
2019-03-15T00:12:50.986Z,1.40
2019-03-15T00:15:22.002Z,1.00
2019-03-15T00:17:52.968Z,1.27
2019-03-15T00:20:24.036Z,1.13
2019-03-15T00:22:57.384Z,1.07
2019-03-15T00:25:29.056Z,0.90
2019-03-15T00:28:00.802Z,1.57
2019-03-15T00:30:32.497Z,1.80
2019-03-15T00:33:03.447Z,1.10
2019-03-15T00:35:36.242Z,1.73
2019-03-15T00:38:08.506Z,1.67
2019-03-15T00:40:39.544Z,1.40
2019-03-15T00:43:11.950Z,1.20
2019-03-15T00:45:42.974Z,1.73
2019-03-15T00:48:13.953Z,2.10
2019-03-15T00:50:45.053Z,1.57
2019-03-15T00:53:17.392Z,1.93
2019-03-15T00:55:48.390Z,1.90
2019-03-15T00:58:19.359Z,1.90
2019-03-15T01:00:50.386Z,1.50
2019-03-15T01:03:21.339Z,1.43
2019-03-15T01:05:59.674Z,1.70
2019-03-15T01:08:30.718Z,1.23
2019-03-15T01:11:01.739Z,1.83
2019-03-15T01:13:32.698Z,0.87
2019-03-15T01:16:04.161Z,0.87
2019-03-15T01:18:35.134Z,0.90
2019-03-15T01:21:06.131Z,1.37
2019-03-15T01:23:37.094Z,1.40
2019-03-15T01:26:08.142Z,0.90
2019-03-15T01:28:40.469Z,0.80
2019-03-15T01:31:11.892Z,1.03
2019-03-15T01:33:42.829Z,1.13
2019-03-15T01:36:15.529Z,0.97
2019-03-15T01:38:47.631Z,1.70
2019-03-15T01:41:18.638Z,1.30
2019-03-15T01:43:49.671Z,1.60
2019-03-15T01:46:22.572Z,1.20
2019-03-15T01:48:53.575Z,1.33
2019-03-15T01:51:24.940Z,1.40
2019-03-15T01:53:55.954Z,1.30
2019-03-15T01:56:27.218Z,1.27
2019-03-15T01:58:58.640Z,1.50
2019-03-15T02:01:30.750Z,1.40
2019-03-15T02:04:05.606Z,1.37
2019-03-15T02:06:36.866Z,1.10
2019-03-15T02:09:09.392Z,1.30
2019-03-15T02:11:40.905Z,1.37
2019-03-15T02:14:12.019Z,1.30
2019-03-15T02:16:43.114Z,1.60
2019-03-15T02:19:14.162Z,1.43
2019-03-15T02:21:45.262Z,0.97
2019-03-15T02:24:16.231Z,1.50
2019-03-15T02:26:47.237Z,1.73
2019-03-15T02:29:19.089Z,1.27
2019-03-15T02:31:50.277Z,1.53
2019-03-15T02:34:21.302Z,1.40
2019-03-15T02:36:52.287Z,1.37
2019-03-15T02:39:23.256Z,1.30
2019-03-15T02:41:54.245Z,1.67
2019-03-15T02:44:25.396Z,1.53
2019-03-15T02:46:56.608Z,1.90
2019-03-15T02:49:29.028Z,1.87
2019-03-15T02:52:00.070Z,2.10
2019-03-15T02:54:31.235Z,1.90
2019-03-15T02:57:02.254Z,1.40
2019-03-15T02:59:33.226Z,1.20
2019-03-15T03:02:04.181Z,1.57
2019-03-15T03:04:35.165Z,1.60
2019-03-15T03:07:06.145Z,1.53
2019-03-15T03:09:37.133Z,1.47
2019-03-15T03:12:11.164Z,1.40
2019-03-15T03:14:42.116Z,1.40
2019-03-15T03:17:13.562Z,1.27
2019-03-15T03:19:45.115Z,1.30
2019-03-15T03:22:16.070Z,1.63
2019-03-15T03:24:47.200Z,1.30
2019-03-15T03:27:18.250Z,1.57
2019-03-15T03:29:49.476Z,1.30
2019-03-15T03:32:20.457Z,1.30
2019-03-15T03:34:51.430Z,1.03
2019-03-15T03:37:22.397Z,1.30
2019-03-15T03:39:53.360Z,1.57
2019-03-15T03:42:24.385Z,1.27
2019-03-15T03:44:55.348Z,1.37
2019-03-15T03:47:27.037Z,1.90
2019-03-15T03:49:58.028Z,1.50
2019-03-15T03:52:29.106Z,2.27
2019-03-15T03:55:00.099Z,1.20
2019-03-15T03:57:31.041Z,1.00
2019-03-15T04:00:02.129Z,1.20
2019-03-15T04:02:33.230Z,1.67
2019-03-15T04:05:04.889Z,1.30
2019-03-15T04:07:35.925Z,1.27
2019-03-15T04:10:07.772Z,1.43
2019-03-15T04:12:38.746Z,1.80
2019-03-15T04:15:10.053Z,1.53
2019-03-15T04:17:41.126Z,1.43
2019-03-15T04:20:14.113Z,1.83
2019-03-15T04:22:45.091Z,1.90
2019-03-15T04:25:17.444Z,2.10
2019-03-15T04:27:48.598Z,2.10
2019-03-15T04:30:20.657Z,1.93
2019-03-15T04:32:51.755Z,1.53
2019-03-15T04:35:22.882Z,1.70
2019-03-15T04:37:54.619Z,2.03
2019-03-15T04:40:26.291Z,1.87
2019-03-15T04:42:59.195Z,1.97
2019-03-15T04:45:30.222Z,2.23
2019-03-15T04:48:01.285Z,2.10
2019-03-15T04:50:32.412Z,2.97
2019-03-15T04:53:03.543Z,3.13
2019-03-15T04:55:34.663Z,3.43
2019-03-15T04:58:05.810Z,3.60
2019-03-15T05:00:38.575Z,2.57
2019-03-15T05:03:09.680Z,3.50
2019-03-15T05:05:40.883Z,4.43
2019-03-15T05:08:12.036Z,3.73
2019-03-15T05:10:43.536Z,3.73
2019-03-15T05:13:14.821Z,3.53
2019-03-15T05:15:47.021Z,3.17
2019-03-15T05:18:18.156Z,3.77
2019-03-15T05:20:49.300Z,2.67
2019-03-15T05:23:20.461Z,3.73
2019-03-15T05:25:51.598Z,3.33
2019-03-15T05:28:22.722Z,2.90
2019-03-15T05:30:54.071Z,3.73
2019-03-15T05:33:25.223Z,3.57
2019-03-15T05:35:57.131Z,3.17
2019-03-15T05:38:28.290Z,3.67
2019-03-15T05:40:59.636Z,4.07
2019-03-15T05:43:30.794Z,3.10
2019-03-15T05:46:02.492Z,3.07
2019-03-15T05:48:34.691Z,3.87
2019-03-15T05:51:06.198Z,3.43
2019-03-15T05:53:37.303Z,3.73
2019-03-15T05:56:08.862Z,3.47
2019-03-15T05:58:42.387Z,3.70
2019-03-15T06:01:14.545Z,3.97
2019-03-15T06:03:48.920Z,3.60
2019-03-15T06:06:18.771Z,4.13
2019-03-15T06:08:49.935Z,4.00
2019-03-15T06:11:21.102Z,4.03
2019-03-15T06:13:52.218Z,3.77
2019-03-15T06:16:23.368Z,3.90
2019-03-15T06:18:54.469Z,3.37
2019-03-15T06:21:25.820Z,3.57
2019-03-15T06:23:56.970Z,4.23
2019-03-15T06:26:28.116Z,4.67
2019-03-15T06:29:01.579Z,4.50
2019-03-15T06:31:32.138Z,3.90
2019-03-15T06:34:03.229Z,3.57
2019-03-15T06:36:34.419Z,5.33
2019-03-15T06:39:08.433Z,4.10
2019-03-15T06:41:39.763Z,4.37
2019-03-15T06:44:10.895Z,4.23
2019-03-15T06:46:42.045Z,4.37
2019-03-15T06:49:16.382Z,5.07
2019-03-15T06:51:46.071Z,3.83
2019-03-15T06:54:17.186Z,3.57
2019-03-15T06:56:48.500Z,4.40
2019-03-15T06:59:19.981Z,4.27
2019-03-15T07:01:51.246Z,4.30
2019-03-15T07:04:22.411Z,4.80
2019-03-15T07:06:53.530Z,4.43
2019-03-15T07:09:24.780Z,4.33
2019-03-15T07:12:08.686Z,4.73
2019-03-15T07:14:28.807Z,5.03
2019-03-15T07:16:59.984Z,4.57
2019-03-15T07:19:31.298Z,3.90
2019-03-15T07:22:02.417Z,4.10
2019-03-15T07:24:33.658Z,4.33
2019-03-15T07:27:12.974Z,3.93
2019-03-15T07:29:37.602Z,4.60
2019-03-15T07:32:09.611Z,5.00
2019-03-15T07:34:41.383Z,4.83
2019-03-15T07:37:12.783Z,5.43
2019-03-15T07:39:46.025Z,6.17
2019-03-15T07:42:17.215Z,6.63
2019-03-15T07:44:49.131Z,7.23
2019-03-15T07:47:20.500Z,7.37
2019-03-15T07:49:51.623Z,7.60
2019-03-15T07:52:24.493Z,6.97
2019-03-15T07:54:55.594Z,7.87
2019-03-15T07:57:28.609Z,8.83
2019-03-15T08:00:00.386Z,8.30
2019-03-15T08:02:32.391Z,8.33
2019-03-15T08:05:03.615Z,8.33
2019-03-15T08:07:36.921Z,8.10
2019-03-15T08:10:08.964Z,7.97
2019-03-15T08:12:40.181Z,8.00
2019-03-15T08:15:11.798Z,8.50
2019-03-15T08:17:42.906Z,8.70
2019-03-15T08:31:37.210Z,8.97
2019-03-15T08:34:07.665Z,9.13
2019-03-15T08:36:38.353Z,10.00
2019-03-15T08:39:09.263Z,8.60
2019-03-15T08:41:40.370Z,9.20
2019-03-15T08:44:10.904Z,8.90
2019-03-15T08:46:43.321Z,10.53
2019-03-15T08:49:13.929Z,8.93
2019-03-15T08:51:45.844Z,8.70
2019-03-15T08:54:16.828Z,9.27
2019-03-15T08:56:47.638Z,8.77
2019-03-15T08:59:18.164Z,8.50
2019-03-15T09:01:54.434Z,8.27
2019-03-15T09:04:26.440Z,8.10
2019-03-15T09:06:58.672Z,8.50
2019-03-15T09:09:29.389Z,7.10
2019-03-15T09:11:59.966Z,7.77
2019-03-15T09:14:30.718Z,8.10
2019-03-15T09:17:01.269Z,7.40
2019-03-15T09:19:31.693Z,7.80
2019-03-15T09:22:02.156Z,6.63
2019-03-15T09:24:32.776Z,7.60
2019-03-15T09:27:04.583Z,7.50
2019-03-15T09:29:36.482Z,7.50
2019-03-15T09:32:09.255Z,7.40
2019-03-15T09:34:40.043Z,6.67
2019-03-15T09:37:10.545Z,6.33
2019-03-15T09:39:41.231Z,5.87
2019-03-15T09:42:12.499Z,5.43
2019-03-15T09:44:45.117Z,5.20
2019-03-15T09:47:17.118Z,4.63
2019-03-15T09:49:49.858Z,5.03
2019-03-15T09:52:20.456Z,4.60
2019-03-15T09:54:55.361Z,4.23
2019-03-15T09:57:26.566Z,3.70
2019-03-15T09:59:57.034Z,3.97
2019-03-15T10:02:30.550Z,3.57
2019-03-15T10:05:10.061Z,3.97
2019-03-15T10:07:38.602Z,4.10
2019-03-15T10:10:13.759Z,3.83
2019-03-15T10:12:44.923Z,3.27
2019-03-15T10:15:15.398Z,3.37
2019-03-15T10:17:47.156Z,3.70
2019-03-15T10:20:18.096Z,2.73
2019-03-15T10:23:04.852Z,3.37
2019-03-15T10:25:22.428Z,3.17
2019-03-15T10:27:52.908Z,3.13
2019-03-15T10:30:23.360Z,3.63
2019-03-15T10:32:55.963Z,3.57
2019-03-15T10:35:26.969Z,3.90
2019-03-15T10:37:58.483Z,4.30
2019-03-15T10:40:29.265Z,3.60
2019-03-15T10:43:01.042Z,3.87
2019-03-15T10:45:31.964Z,4.43
2019-03-15T10:48:04.137Z,4.90
2019-03-15T10:50:34.572Z,4.80
2019-03-15T10:53:04.989Z,4.93
2019-03-15T10:55:35.427Z,4.70
2019-03-15T10:58:05.872Z,4.07
2019-03-15T11:00:38.886Z,4.33
2019-03-15T11:03:12.955Z,4.87
2019-03-15T11:05:43.116Z,4.37
2019-03-15T11:08:13.918Z,4.90
2019-03-15T11:10:45.236Z,5.53
2019-03-15T11:13:16.249Z,5.30
2019-03-15T11:15:46.644Z,5.00
2019-03-15T11:18:17.506Z,6.00
2019-03-15T11:20:47.908Z,5.70
2019-03-15T11:23:18.426Z,5.57
2019-03-15T11:25:51.972Z,5.30
2019-03-15T11:28:23.160Z,5.77
2019-03-15T11:30:54.310Z,6.17
2019-03-15T11:33:26.344Z,6.43
2019-03-15T11:35:57.967Z,6.47
2019-03-15T11:38:29.052Z,6.17
2019-03-15T11:40:59.710Z,6.77
2019-03-15T11:43:32.040Z,6.90
2019-03-15T11:46:04.137Z,6.83
2019-03-15T11:48:35.327Z,7.53
2019-03-15T11:51:07.952Z,7.40
2019-03-15T11:53:37.907Z,7.80
2019-03-15T11:56:08.382Z,6.83
2019-03-15T11:58:39.887Z,7.60
2019-03-15T12:01:12.052Z,6.23
2019-03-15T12:03:52.446Z,6.23
2019-03-15T12:06:16.543Z,5.77
2019-03-15T12:08:47.006Z,6.73
2019-03-15T12:11:17.465Z,6.40
2019-03-15T12:13:48.823Z,6.17
2019-03-15T12:16:19.286Z,6.30
2019-03-15T12:18:50.337Z,5.73
2019-03-15T12:21:21.107Z,6.87
2019-03-15T12:23:51.498Z,5.40
2019-03-15T12:26:23.262Z,5.23
2019-03-15T12:28:54.553Z,5.23
2019-03-15T12:31:25.900Z,5.40
2019-03-15T12:33:56.868Z,6.47
2019-03-15T12:36:27.279Z,6.27
2019-03-15T12:38:58.898Z,6.33
2019-03-15T12:41:30.381Z,6.00
2019-03-15T12:44:02.518Z,6.13
2019-03-15T12:46:34.472Z,7.97
2019-03-15T12:49:05.106Z,5.30
2019-03-15T12:51:35.662Z,5.23
2019-03-15T12:54:06.759Z,5.03
2019-03-15T12:56:37.984Z,5.30
2019-03-15T12:59:08.556Z,4.87
2019-03-15T13:01:42.203Z,4.20
2019-03-15T13:04:12.921Z,3.70
2019-03-15T13:06:43.358Z,3.93
2019-03-15T13:09:15.020Z,3.70
2019-03-15T13:11:45.417Z,3.83
2019-03-15T13:14:15.838Z,3.90
2019-03-15T13:16:46.267Z,4.57
2019-03-15T13:19:16.723Z,4.17
2019-03-15T13:21:47.191Z,3.83
2019-03-15T13:24:17.650Z,3.13
2019-03-15T13:26:48.069Z,3.20
2019-03-15T13:29:18.502Z,3.27
2019-03-15T13:31:48.947Z,3.20
2019-03-15T13:34:19.425Z,2.43
2019-03-15T13:36:49.888Z,2.67
2019-03-15T13:39:20.323Z,2.47
2019-03-15T13:41:50.751Z,1.90
2019-03-15T13:44:21.265Z,2.30
2019-03-15T13:46:51.805Z,2.03
2019-03-15T13:49:22.265Z,2.00
2019-03-15T13:51:52.693Z,1.77
2019-03-15T13:54:23.139Z,1.80
2019-03-15T13:56:53.552Z,1.57
2019-03-15T13:59:24.000Z,1.60
2019-03-15T14:01:54.442Z,2.50
2019-03-15T14:04:24.990Z,1.33
2019-03-15T14:06:55.482Z,1.57
2019-03-15T14:09:25.952Z,1.20
2019-03-15T14:11:56.401Z,1.63
2019-03-15T14:14:26.987Z,1.13
2019-03-15T14:16:57.397Z,1.90
2019-03-15T14:19:27.905Z,1.43
2019-03-15T14:21:58.348Z,1.93
2019-03-15T14:24:30.809Z,1.33
2019-03-15T14:27:02.055Z,1.17
2019-03-15T14:29:32.891Z,1.03
2019-03-15T14:32:03.342Z,1.23
2019-03-15T14:34:34.888Z,1.40
2019-03-15T14:37:05.683Z,1.57
2019-03-15T14:39:36.262Z,1.20
2019-03-15T14:42:06.894Z,1.00
2019-03-15T14:44:37.581Z,0.97
2019-03-15T14:47:09.505Z,0.93
2019-03-15T14:49:41.414Z,1.00
2019-03-15T14:52:11.903Z,1.07
2019-03-15T14:54:43.684Z,1.33
2019-03-15T14:57:14.338Z,1.40
2019-03-15T14:59:44.818Z,1.33
2019-03-15T15:02:16.361Z,1.30
2019-03-15T15:04:46.806Z,0.80
2019-03-15T15:07:17.285Z,1.13
2019-03-15T15:09:47.715Z,1.50
2019-03-15T15:12:18.157Z,1.30
2019-03-15T15:14:48.602Z,1.10
2019-03-15T15:17:19.359Z,1.20
2019-03-15T15:19:50.604Z,1.57
2019-03-15T15:22:21.037Z,1.27
2019-03-15T15:24:53.422Z,1.60
2019-03-15T15:27:25.600Z,1.10
2019-03-15T15:29:56.233Z,1.67
2019-03-15T15:32:27.196Z,1.60
2019-03-15T15:34:57.805Z,1.60
2019-03-15T15:37:31.080Z,1.40
2019-03-15T15:40:02.897Z,1.33
2019-03-15T15:42:33.460Z,1.40
2019-03-15T15:45:05.565Z,1.67
2019-03-15T15:47:37.162Z,1.10
2019-03-15T15:50:09.505Z,1.17
2019-03-15T15:52:39.939Z,1.83
2019-03-15T15:55:10.405Z,1.23
2019-03-15T15:57:41.008Z,1.50
2019-03-15T16:00:14.332Z,1.20
2019-03-15T16:02:44.801Z,1.23
2019-03-15T16:05:16.382Z,1.50
2019-03-15T16:07:47.322Z,1.50
2019-03-15T16:10:19.182Z,1.10
2019-03-15T16:12:49.735Z,1.77
2019-03-15T16:15:21.599Z,1.90
2019-03-15T16:17:52.122Z,1.90
2019-03-15T16:20:22.561Z,1.10
2019-03-15T16:22:53.600Z,11.40
2019-03-15T16:25:24.591Z,1.90
2019-03-15T16:27:56.911Z,1.50
2019-03-15T16:30:27.325Z,1.70
2019-03-15T16:32:58.808Z,1.40
2019-03-15T16:35:29.813Z,1.83
2019-03-15T16:38:02.041Z,1.70
2019-03-15T16:40:32.466Z,1.90
2019-03-15T16:43:04.084Z,1.70
2019-03-15T16:45:35.188Z,2.10
2019-03-15T16:48:05.623Z,2.03
2019-03-15T16:50:36.117Z,1.97
2019-03-15T16:53:06.541Z,2.13
2019-03-15T16:55:37.561Z,2.47
2019-03-15T16:58:07.983Z,1.50
2019-03-15T17:00:40.306Z,2.23
2019-03-15T17:03:10.943Z,1.63
2019-03-15T17:05:44.736Z,1.63
2019-03-15T17:08:15.325Z,2.07
2019-03-15T17:10:47.074Z,1.90
2019-03-15T17:13:18.756Z,2.53
2019-03-15T17:15:49.183Z,2.23
2019-03-15T17:18:20.477Z,2.10
2019-03-15T17:20:50.958Z,1.63
2019-03-15T17:23:21.780Z,2.20
2019-03-15T17:25:53.341Z,2.37
2019-03-15T17:28:24.558Z,1.93
2019-03-15T17:30:54.999Z,2.23
2019-03-15T17:33:26.425Z,2.73
2019-03-15T17:35:56.847Z,2.27
2019-03-15T17:38:28.180Z,2.77
2019-03-15T17:41:00.629Z,2.03
2019-03-15T17:43:31.100Z,2.23
2019-03-15T17:46:02.436Z,1.97
2019-03-15T17:48:32.934Z,2.60
2019-03-15T17:51:04.547Z,2.07
2019-03-15T17:53:34.989Z,1.97
2019-03-15T17:56:06.064Z,2.17
2019-03-15T17:58:36.557Z,2.60
2019-03-15T18:01:07.200Z,1.90
2019-03-15T18:03:37.782Z,2.60
2019-03-15T18:06:08.250Z,2.63
2019-03-15T18:08:39.504Z,1.70
2019-03-15T18:11:10.655Z,2.83
2019-03-15T18:13:41.631Z,2.50
2019-03-15T18:16:12.222Z,2.37
2019-03-15T18:18:42.741Z,2.17
2019-03-15T18:21:13.211Z,3.03
2019-03-15T18:23:43.621Z,2.40
2019-03-15T18:26:14.439Z,2.50
2019-03-15T18:28:46.348Z,2.47
2019-03-15T18:31:16.790Z,3.07
2019-03-15T18:33:47.240Z,2.40
2019-03-15T18:36:19.543Z,2.27
2019-03-15T18:38:50.885Z,3.07
2019-03-15T18:41:22.257Z,2.80
2019-03-15T18:43:53.628Z,3.00
2019-03-15T18:46:24.083Z,1.93
2019-03-15T18:48:55.606Z,3.97
2019-03-15T18:51:27.517Z,2.50
2019-03-15T18:53:58.241Z,2.60
2019-03-15T18:56:30.025Z,3.17
2019-03-15T18:59:00.653Z,2.77
2019-03-15T19:01:32.108Z,2.53
2019-03-15T19:04:03.832Z,2.90
2019-03-15T19:06:34.331Z,3.13
2019-03-15T19:09:07.479Z,2.83
2019-03-15T19:11:37.979Z,2.53
2019-03-15T19:14:09.650Z,2.80
2019-03-15T19:16:40.543Z,3.67
2019-03-15T19:19:11.056Z,2.43
2019-03-15T19:21:46.254Z,2.63
2019-03-15T19:24:18.112Z,2.93
2019-03-15T19:26:49.035Z,2.47
2019-03-15T19:29:21.418Z,2.40
2019-03-15T19:31:51.848Z,3.30
2019-03-15T19:34:22.299Z,2.47
2019-03-15T19:36:52.793Z,2.70
2019-03-15T19:39:23.231Z,3.57
2019-03-15T19:41:54.532Z,3.00
2019-03-15T19:44:25.163Z,2.57
2019-03-15T19:46:56.387Z,3.30
2019-03-15T19:49:26.827Z,5.63
2019-03-15T19:51:57.420Z,3.10
2019-03-15T19:54:27.822Z,3.30
2019-03-15T19:56:58.262Z,3.10
2019-03-15T19:59:28.969Z,2.70
2019-03-15T20:02:01.248Z,3.40
2019-03-15T20:04:32.085Z,3.00
2019-03-15T20:07:02.615Z,3.30
2019-03-15T20:09:33.572Z,2.97
2019-03-15T20:12:04.293Z,2.93
2019-03-15T20:14:35.773Z,3.07
2019-03-15T20:17:06.205Z,2.63
2019-03-15T20:19:37.688Z,3.23
2019-03-15T20:22:09.489Z,2.97
2019-03-15T20:24:39.979Z,2.90
2019-03-15T20:27:12.026Z,2.60
2019-03-15T20:29:42.634Z,2.90
2019-03-15T20:32:13.449Z,2.70
2019-03-15T20:34:44.488Z,2.80
2019-03-15T20:37:16.422Z,3.13
2019-03-15T20:39:48.432Z,2.80
2019-03-15T20:42:19.919Z,2.80
2019-03-15T20:44:51.266Z,3.97
2019-03-15T20:47:21.677Z,3.27
2019-03-15T20:49:52.416Z,3.73
2019-03-15T20:52:22.956Z,2.73
2019-03-15T20:54:53.413Z,3.20
2019-03-15T20:57:24.732Z,2.60
2019-03-15T20:59:55.960Z,2.87
2019-03-15T21:02:27.230Z,3.33
2019-03-15T21:04:59.042Z,2.80
2019-03-15T21:07:30.149Z,3.70
2019-03-15T21:10:01.121Z,3.23
2019-03-15T21:12:32.681Z,2.43
2019-03-15T21:15:05.943Z,2.97
2019-03-15T21:17:37.342Z,3.20
2019-03-15T21:20:09.762Z,2.53
2019-03-15T21:22:41.599Z,3.30
2019-03-15T21:25:12.416Z,3.37
2019-03-15T21:27:53.480Z,3.27
2019-03-15T21:30:17.117Z,3.47
2019-03-15T21:32:47.671Z,2.57
2019-03-15T21:35:18.372Z,3.10
2019-03-15T21:37:48.875Z,3.40
2019-03-15T21:40:21.183Z,2.87
2019-03-15T21:42:51.725Z,3.47
2019-03-15T21:45:22.217Z,3.23
2019-03-15T21:47:52.898Z,2.77
2019-03-15T21:50:23.346Z,3.70
2019-03-15T21:52:53.790Z,2.77
2019-03-15T21:55:24.318Z,3.07
2019-03-15T21:57:55.856Z,3.70
2019-03-15T22:00:26.359Z,2.93
2019-03-15T22:02:57.804Z,3.50
2019-03-15T22:05:29.098Z,4.00
2019-03-15T22:07:59.898Z,3.23
2019-03-15T22:10:32.033Z,3.37
2019-03-15T22:13:02.511Z,3.70
2019-03-15T22:15:33.468Z,3.60
2019-03-15T22:18:03.889Z,3.00
2019-03-15T22:20:36.115Z,2.60
2019-03-15T22:23:08.681Z,3.20
2019-03-15T22:25:39.115Z,3.40
2019-03-15T22:28:09.544Z,3.13
2019-03-15T22:30:39.973Z,2.93
2019-03-15T22:33:10.402Z,3.90
2019-03-15T22:35:40.859Z,3.00
2019-03-15T22:38:25.211Z,3.57
2019-03-15T22:40:45.344Z,3.40
2019-03-15T22:43:15.893Z,2.93
2019-03-15T22:45:47.742Z,2.30
2019-03-15T22:48:18.310Z,3.03
2019-03-15T22:50:49.076Z,3.40
2019-03-15T22:53:20.808Z,2.57
2019-03-15T22:55:51.578Z,3.07
2019-03-15T22:58:22.006Z,3.40
2019-03-15T23:00:53.631Z,3.40
2019-03-15T23:03:24.091Z,3.07
2019-03-15T23:05:54.530Z,4.70
2019-03-15T23:08:25.353Z,2.73
2019-03-15T23:10:55.854Z,3.33
2019-03-15T23:13:26.303Z,5.03
2019-03-15T23:15:56.727Z,3.30
2019-03-15T23:18:27.156Z,3.23
2019-03-15T23:20:58.113Z,3.30
2019-03-15T23:23:29.037Z,3.50
2019-03-15T23:26:02.032Z,4.73
2019-03-15T23:28:32.442Z,3.37
2019-03-15T23:31:03.260Z,3.13
2019-03-15T23:33:34.342Z,3.40
2019-03-15T23:36:05.444Z,3.67
2019-03-15T23:38:35.923Z,3.23
2019-03-15T23:41:06.394Z,3.57
2019-03-15T23:43:37.394Z,3.33
2019-03-15T23:46:07.875Z,3.20
2019-03-15T23:48:38.383Z,3.60
2019-03-15T23:51:08.883Z,3.60
2019-03-15T23:53:39.399Z,3.50
2019-03-15T23:56:10.091Z,3.23
2019-03-15T23:58:41.043Z,3.67
